createdAt,value
2019-04-30T00:00:45.263Z,10.00
2019-04-30T00:03:19.336Z,10.00
2019-04-30T00:05:49.361Z,10.00
2019-04-30T00:08:16.994Z,10.00
2019-04-30T00:10:45.520Z,10.00
2019-04-30T00:13:17.830Z,10.10
2019-04-30T00:15:45.282Z,10.00
2019-04-30T00:18:15.543Z,10.10
2019-04-30T00:20:46.975Z,10.10
2019-04-30T00:23:17.818Z,10.10
2019-04-30T00:25:46.478Z,10.00
2019-04-30T00:28:15.564Z,10.10
2019-04-30T00:30:47.312Z,10.10
2019-04-30T00:33:15.330Z,10.10
2019-04-30T00:35:45.393Z,10.10
2019-04-30T00:38:15.125Z,10.10
2019-04-30T00:40:45.073Z,10.10
2019-04-30T00:43:15.452Z,10.10
2019-04-30T00:45:47.398Z,10.10
2019-04-30T00:48:19.432Z,10.00
2019-04-30T00:50:45.740Z,10.10
2019-04-30T00:53:16.232Z,10.10
2019-04-30T00:55:48.429Z,10.00
2019-04-30T00:58:19.714Z,10.10
2019-04-30T01:00:59.754Z,10.00
2019-04-30T01:03:30.632Z,10.10
2019-04-30T01:05:59.122Z,10.00
2019-04-30T01:08:32.371Z,10.00
2019-04-30T01:11:06.466Z,10.10
2019-04-30T01:13:32.012Z,10.10
2019-04-30T01:16:00.504Z,10.00
2019-04-30T01:18:32.022Z,10.00
2019-04-30T01:21:02.936Z,10.00
2019-04-30T01:23:30.044Z,10.00
2019-04-30T01:25:58.675Z,10.00
2019-04-30T01:28:28.980Z,10.00
2019-04-30T01:31:01.894Z,10.00
2019-04-30T01:33:34.534Z,10.00
2019-04-30T01:36:04.101Z,10.00
2019-04-30T01:38:31.073Z,10.00
2019-04-30T01:41:00.311Z,10.00
2019-04-30T01:43:33.550Z,10.00
2019-04-30T01:46:01.730Z,10.00
2019-04-30T01:48:29.639Z,10.00
2019-04-30T01:50:58.657Z,10.10
2019-04-30T01:53:28.657Z,10.00
2019-04-30T01:56:16.081Z,10.00
2019-04-30T01:59:01.200Z,10.10
2019-04-30T02:01:31.790Z,10.00
2019-04-30T02:04:00.735Z,10.10
2019-04-30T02:06:29.491Z,10.00
2019-04-30T02:08:59.365Z,10.00
2019-04-30T02:11:28.879Z,9.90
2019-04-30T02:13:59.118Z,10.00
2019-04-30T02:16:29.016Z,10.00
2019-04-30T02:18:59.511Z,10.00
2019-04-30T02:21:29.898Z,10.00
2019-04-30T02:23:58.840Z,10.00
2019-04-30T02:26:28.659Z,9.90
2019-04-30T02:29:00.167Z,9.90
2019-04-30T02:31:30.952Z,9.90
2019-04-30T02:34:03.371Z,10.00
2019-04-30T02:36:45.154Z,9.90
2019-04-30T02:39:13.680Z,9.90
2019-04-30T02:41:44.099Z,9.90
2019-04-30T02:44:14.375Z,9.90
2019-04-30T02:46:44.190Z,9.80
2019-04-30T02:49:14.190Z,9.80
2019-04-30T02:51:44.687Z,9.70
2019-04-30T02:54:15.766Z,9.60
2019-04-30T02:56:45.915Z,9.70
2019-04-30T02:59:14.777Z,9.70
2019-04-30T03:01:43.500Z,9.70
2019-04-30T03:04:12.096Z,9.70
2019-04-30T03:06:40.894Z,9.70
2019-04-30T03:09:10.646Z,9.80
2019-04-30T03:11:40.616Z,9.80
2019-04-30T03:14:12.474Z,9.90
2019-04-30T03:16:54.017Z,9.80
2019-04-30T03:19:24.345Z,9.80
2019-04-30T03:21:56.926Z,9.80
2019-04-30T03:24:25.376Z,9.80
2019-04-30T03:26:59.257Z,9.90
2019-04-30T03:29:30.036Z,9.80
2019-04-30T03:32:02.029Z,9.80
2019-04-30T03:34:31.843Z,9.80
2019-04-30T03:37:01.657Z,9.70
2019-04-30T03:39:30.547Z,9.70
2019-04-30T03:41:59.727Z,9.70
2019-04-30T03:44:31.585Z,9.70
2019-04-30T03:46:59.328Z,9.70
2019-04-30T03:49:29.831Z,9.70
2019-04-30T03:51:59.921Z,9.60
2019-04-30T03:54:29.326Z,9.50
2019-04-30T03:57:02.562Z,9.60
2019-04-30T03:59:32.227Z,9.70
2019-04-30T04:02:16.131Z,9.80
2019-04-30T04:04:52.156Z,9.80
2019-04-30T04:07:20.378Z,9.80
2019-04-30T04:09:50.613Z,9.80
2019-04-30T04:12:24.510Z,9.80
2019-04-30T04:14:53.372Z,9.80
2019-04-30T04:17:22.451Z,9.70
2019-04-30T04:19:53.800Z,9.70
2019-04-30T04:22:22.537Z,9.70
2019-04-30T04:24:51.212Z,9.70
2019-04-30T04:27:19.965Z,9.70
2019-04-30T04:29:50.891Z,9.70
2019-04-30T04:32:23.516Z,9.80
2019-04-30T04:34:50.471Z,9.70
2019-04-30T04:37:20.242Z,9.80
2019-04-30T04:39:50.104Z,9.80
2019-04-30T04:42:19.574Z,9.80
2019-04-30T04:44:50.231Z,9.90
2019-04-30T04:47:20.019Z,9.90
2019-04-30T04:49:53.262Z,9.80
2019-04-30T04:52:21.539Z,9.80
2019-04-30T04:54:50.782Z,9.80
2019-04-30T04:57:22.715Z,9.90
2019-04-30T04:59:50.166Z,9.80
2019-04-30T05:02:23.266Z,9.90
2019-04-30T05:04:50.986Z,9.90
2019-04-30T05:07:19.673Z,10.00
2019-04-30T05:09:48.940Z,9.90
2019-04-30T05:12:18.567Z,10.00
2019-04-30T05:14:48.442Z,10.00
2019-04-30T05:17:16.968Z,10.10
2019-04-30T05:19:45.528Z,10.10
2019-04-30T05:22:14.077Z,10.10
2019-04-30T05:24:42.790Z,10.20
2019-04-30T05:27:11.351Z,10.20
2019-04-30T05:29:39.990Z,10.20
2019-04-30T05:32:09.500Z,10.30
2019-04-30T05:34:40.132Z,10.30
2019-04-30T05:37:09.016Z,10.30
2019-04-30T05:39:39.067Z,10.30
2019-04-30T05:42:08.826Z,10.40
2019-04-30T05:44:39.437Z,10.40
2019-04-30T05:47:09.199Z,10.40
2019-04-30T05:49:38.870Z,10.60
2019-04-30T05:52:09.442Z,10.80
2019-04-30T05:54:39.093Z,10.70
2019-04-30T05:57:09.501Z,10.60
2019-04-30T05:59:38.809Z,10.70
2019-04-30T06:02:08.881Z,10.60
2019-04-30T06:04:38.739Z,10.50
2019-04-30T06:07:08.629Z,10.60
2019-04-30T06:09:41.597Z,10.60
2019-04-30T06:12:28.447Z,10.60
2019-04-30T06:15:01.351Z,10.70
2019-04-30T06:17:33.515Z,10.60
2019-04-30T06:20:02.031Z,10.80
2019-04-30T06:22:30.733Z,10.80
2019-04-30T06:24:59.546Z,10.90
2019-04-30T06:27:29.170Z,10.90
2019-04-30T06:29:58.514Z,10.90
2019-04-30T06:32:27.119Z,10.80
2019-04-30T06:34:55.834Z,10.90
2019-04-30T06:37:25.011Z,11.00
2019-04-30T06:39:53.533Z,11.00
2019-04-30T06:42:22.326Z,11.20
2019-04-30T06:44:51.464Z,11.50
2019-04-30T06:47:32.338Z,11.50
2019-04-30T06:49:51.147Z,11.50
2019-04-30T06:52:23.007Z,11.70
2019-04-30T06:54:50.050Z,11.90
2019-04-30T06:57:19.850Z,11.80
2019-04-30T06:59:51.233Z,11.70
2019-04-30T07:02:19.672Z,12.00
2019-04-30T07:04:49.164Z,12.20
2019-04-30T07:07:21.407Z,12.30
2019-04-30T07:10:00.987Z,12.40
2019-04-30T07:12:34.109Z,12.40
2019-04-30T07:15:03.225Z,12.20
2019-04-30T07:17:31.690Z,11.90
2019-04-30T07:20:00.146Z,12.10
2019-04-30T07:22:39.454Z,12.20
2019-04-30T07:24:59.545Z,12.10
2019-04-30T07:27:30.165Z,12.10
2019-04-30T07:29:59.623Z,11.90
2019-04-30T07:32:28.826Z,11.90
2019-04-30T07:34:59.286Z,12.80
2019-04-30T07:37:29.282Z,13.20
2019-04-30T07:39:58.940Z,13.60
2019-04-30T07:42:29.433Z,14.10
2019-04-30T07:45:00.434Z,14.00
2019-04-30T07:47:29.582Z,13.40
2019-04-30T07:50:00.646Z,13.50
2019-04-30T07:52:33.309Z,13.10
2019-04-30T07:55:00.605Z,13.10
2019-04-30T07:57:29.173Z,13.20
2019-04-30T08:00:00.514Z,13.10
2019-04-30T08:02:36.713Z,13.20
2019-04-30T08:05:02.780Z,13.10
2019-04-30T08:07:31.249Z,13.30
2019-04-30T08:09:59.782Z,13.60
2019-04-30T08:12:31.940Z,13.20
2019-04-30T08:14:59.430Z,13.10
2019-04-30T08:17:28.907Z,13.30
2019-04-30T08:19:58.833Z,13.30
2019-04-30T08:22:29.507Z,13.40
2019-04-30T08:24:58.675Z,13.50
2019-04-30T08:27:29.486Z,13.60
2019-04-30T08:29:59.125Z,13.60
2019-04-30T08:32:30.315Z,13.60
2019-04-30T08:35:00.950Z,13.60
2019-04-30T08:37:29.108Z,13.70
2019-04-30T08:39:59.759Z,13.50
2019-04-30T08:42:31.643Z,13.40
2019-04-30T08:44:58.590Z,13.50
2019-04-30T08:47:29.084Z,13.70
2019-04-30T08:50:01.588Z,13.40
2019-04-30T08:52:27.589Z,13.60
2019-04-30T08:54:56.131Z,13.80
2019-04-30T08:57:24.633Z,13.90
2019-04-30T08:59:53.083Z,13.80
2019-04-30T09:02:21.514Z,14.00
2019-04-30T09:04:51.680Z,13.80
2019-04-30T09:07:20.102Z,13.80
2019-04-30T09:09:48.967Z,13.90
2019-04-30T09:12:19.456Z,14.10
2019-04-30T09:14:49.090Z,14.10
2019-04-30T09:17:19.669Z,13.90
2019-04-30T09:19:49.056Z,13.70
2019-04-30T09:22:19.430Z,13.90
2019-04-30T09:24:49.636Z,14.10
2019-04-30T09:27:19.553Z,14.50
2019-04-30T09:29:49.183Z,14.30
2019-04-30T09:32:19.346Z,14.30
2019-04-30T09:34:48.771Z,14.30
2019-04-30T09:37:18.747Z,14.10
2019-04-30T09:39:49.496Z,14.20
2019-04-30T09:42:19.528Z,14.00
2019-04-30T09:44:49.200Z,14.60
2019-04-30T09:47:19.898Z,14.60
2019-04-30T09:49:49.322Z,14.50
2019-04-30T09:52:19.342Z,14.30
2019-04-30T09:54:50.069Z,14.10
2019-04-30T09:57:19.332Z,14.20
2019-04-30T09:59:48.629Z,14.30
2019-04-30T10:02:19.197Z,14.50
2019-04-30T10:04:47.971Z,14.50
2019-04-30T10:07:16.788Z,14.60
2019-04-30T10:09:45.306Z,14.70
2019-04-30T10:12:16.940Z,14.90
2019-04-30T10:14:45.410Z,14.90
2019-04-30T10:17:15.539Z,15.20
2019-04-30T10:19:44.085Z,14.80
2019-04-30T10:22:12.558Z,14.90
2019-04-30T10:24:41.107Z,15.00
2019-04-30T10:27:12.994Z,14.80
2019-04-30T10:29:41.238Z,14.90
2019-04-30T10:32:09.825Z,14.90
2019-04-30T10:34:38.307Z,14.90
2019-04-30T10:37:08.843Z,15.00
2019-04-30T10:39:38.973Z,15.00
2019-04-30T10:42:07.385Z,14.90
2019-04-30T10:44:35.906Z,15.00
2019-04-30T10:47:04.593Z,15.10
2019-04-30T10:49:33.069Z,15.00
2019-04-30T10:52:01.542Z,15.10
2019-04-30T10:54:30.055Z,15.20
2019-04-30T10:56:59.182Z,15.10
2019-04-30T10:59:27.813Z,15.00
2019-04-30T11:01:56.322Z,14.90
2019-04-30T11:04:24.760Z,15.20
2019-04-30T11:06:53.251Z,15.30
2019-04-30T11:09:22.080Z,15.10
2019-04-30T11:11:50.586Z,15.30
2019-04-30T11:14:19.121Z,15.40
2019-04-30T11:16:51.134Z,15.50
2019-04-30T11:19:19.196Z,15.50
2019-04-30T11:21:48.088Z,15.40
2019-04-30T11:24:16.713Z,15.50
2019-04-30T11:26:45.994Z,15.70
2019-04-30T11:29:15.000Z,15.70
2019-04-30T11:31:57.695Z,15.80
2019-04-30T11:34:28.208Z,15.80
2019-04-30T11:36:56.603Z,15.90
2019-04-30T11:39:25.378Z,15.80
2019-04-30T11:41:53.871Z,16.10
2019-04-30T11:44:30.963Z,16.20
2019-04-30T11:47:01.251Z,16.50
2019-04-30T11:49:29.819Z,16.00
2019-04-30T11:51:58.428Z,16.10
2019-04-30T11:54:26.954Z,16.10
2019-04-30T11:56:55.912Z,16.40
2019-04-30T11:59:25.442Z,16.40
2019-04-30T12:01:55.760Z,16.30
2019-04-30T12:04:24.223Z,16.40
2019-04-30T12:06:54.498Z,16.50
2019-04-30T12:09:30.413Z,16.30
2019-04-30T12:11:59.007Z,16.60
2019-04-30T12:14:29.608Z,16.80
2019-04-30T12:16:57.692Z,16.70
2019-04-30T12:19:26.146Z,16.70
2019-04-30T12:21:54.752Z,16.60
2019-04-30T12:24:23.289Z,16.50
2019-04-30T12:26:51.717Z,16.40
2019-04-30T12:29:20.121Z,16.40
2019-04-30T12:31:48.648Z,16.40
2019-04-30T12:34:17.067Z,16.60
2019-04-30T12:36:45.501Z,16.40
2019-04-30T12:39:13.939Z,16.20
2019-04-30T12:41:42.450Z,16.30
2019-04-30T12:44:10.961Z,16.60
2019-04-30T12:46:39.522Z,16.60
2019-04-30T12:49:10.324Z,16.60
2019-04-30T12:51:46.360Z,16.70
2019-04-30T12:54:22.503Z,16.80
2019-04-30T12:56:58.654Z,16.70
2019-04-30T12:59:27.225Z,16.90
2019-04-30T13:01:55.761Z,17.10
2019-04-30T13:04:24.307Z,16.90
2019-04-30T13:06:53.298Z,17.10
2019-04-30T13:09:22.524Z,17.10
2019-04-30T13:11:51.841Z,17.10
2019-04-30T13:14:21.192Z,17.10
2019-04-30T13:16:50.196Z,17.20
2019-04-30T13:19:18.655Z,17.20
2019-04-30T13:21:47.067Z,17.40
2019-04-30T13:24:15.636Z,17.50
2019-04-30T13:26:44.155Z,17.40
2019-04-30T13:29:17.231Z,17.40
2019-04-30T13:31:44.997Z,17.50
2019-04-30T13:34:18.608Z,17.50
2019-04-30T13:36:49.230Z,17.40
2019-04-30T13:39:29.799Z,17.30
2019-04-30T13:42:14.837Z,17.60
2019-04-30T13:44:34.130Z,17.70
2019-04-30T13:47:02.570Z,17.80
2019-04-30T13:49:31.330Z,17.80
2019-04-30T13:51:59.770Z,17.60
2019-04-30T13:54:28.225Z,17.40
2019-04-30T13:56:56.807Z,17.50
2019-04-30T13:59:25.323Z,17.60
2019-04-30T14:01:53.962Z,17.60
2019-04-30T14:04:40.364Z,17.60
2019-04-30T14:07:10.597Z,17.90
2019-04-30T14:09:39.017Z,17.80
2019-04-30T14:12:07.631Z,17.80
2019-04-30T14:14:36.130Z,17.70
2019-04-30T14:17:04.646Z,18.00
2019-04-30T14:19:34.050Z,18.00
2019-04-30T14:22:02.462Z,18.10
2019-04-30T14:24:30.883Z,18.00
2019-04-30T14:26:59.607Z,17.60
2019-04-30T14:29:28.442Z,17.90
2019-04-30T14:31:58.828Z,18.00
2019-04-30T14:34:28.573Z,18.00
2019-04-30T14:36:59.201Z,18.00
2019-04-30T14:39:29.207Z,17.90
2019-04-30T14:42:00.028Z,17.90
2019-04-30T14:44:32.998Z,18.00
2019-04-30T14:47:06.237Z,17.90
2019-04-30T14:49:56.465Z,18.10
2019-04-30T14:52:15.129Z,18.10
2019-04-30T14:55:00.404Z,18.00
2019-04-30T14:57:39.187Z,17.90
2019-04-30T15:00:25.676Z,17.90
2019-04-30T15:03:13.718Z,18.00
2019-04-30T15:05:48.407Z,18.10
2019-04-30T15:08:12.362Z,18.00
2019-04-30T15:10:40.812Z,18.10
2019-04-30T15:13:09.758Z,18.20
2019-04-30T15:15:39.151Z,18.20
2019-04-30T15:18:09.195Z,18.20
2019-04-30T15:20:39.619Z,18.20
2019-04-30T15:23:09.579Z,18.20
2019-04-30T15:25:38.818Z,18.10
2019-04-30T15:28:07.259Z,17.90
2019-04-30T15:30:35.708Z,18.10
2019-04-30T15:33:09.410Z,18.10
2019-04-30T15:35:37.950Z,18.10
2019-04-30T15:38:06.487Z,18.10
2019-04-30T15:40:35.010Z,18.00
2019-04-30T15:43:05.164Z,18.10
2019-04-30T15:45:33.692Z,18.20
2019-04-30T15:48:02.275Z,18.10
2019-04-30T15:50:30.739Z,18.20
2019-04-30T15:52:59.230Z,18.10
2019-04-30T15:55:27.713Z,18.10
2019-04-30T15:58:06.733Z,18.10
2019-04-30T16:00:35.290Z,18.10
2019-04-30T16:03:05.464Z,18.20
2019-04-30T16:05:35.666Z,17.90
2019-04-30T16:08:21.602Z,17.90
2019-04-30T16:10:54.833Z,18.00
2019-04-30T16:13:24.983Z,17.80
2019-04-30T16:15:53.444Z,17.90
2019-04-30T16:18:22.284Z,17.90
2019-04-30T16:20:50.728Z,17.90
2019-04-30T16:23:19.247Z,17.90
2019-04-30T16:25:47.816Z,17.80
2019-04-30T16:28:16.486Z,17.80
2019-04-30T16:30:44.994Z,17.70
2019-04-30T16:33:13.432Z,17.80
2019-04-30T16:35:41.901Z,17.80
2019-04-30T16:38:10.403Z,17.80
2019-04-30T16:40:39.005Z,17.80
2019-04-30T16:43:07.524Z,17.80
2019-04-30T16:45:35.992Z,17.80
2019-04-30T16:48:04.403Z,17.80
2019-04-30T16:50:32.881Z,17.60
2019-04-30T16:53:01.317Z,17.60
2019-04-30T16:55:29.755Z,17.60
2019-04-30T16:57:59.119Z,17.50
2019-04-30T17:00:29.068Z,17.50
2019-04-30T17:02:59.803Z,17.60
2019-04-30T17:05:39.594Z,17.50
2019-04-30T17:08:09.782Z,17.40
2019-04-30T17:10:45.605Z,17.40
2019-04-30T17:13:15.661Z,17.40
2019-04-30T17:15:45.988Z,17.30
2019-04-30T17:18:14.762Z,17.40
2019-04-30T17:20:43.226Z,17.30
2019-04-30T17:23:11.699Z,17.20
2019-04-30T17:25:40.175Z,17.20
2019-04-30T17:28:09.177Z,17.20
2019-04-30T17:30:39.194Z,17.20
2019-04-30T17:33:09.494Z,17.20
2019-04-30T17:35:38.747Z,17.20
2019-04-30T17:38:08.450Z,17.10
2019-04-30T17:40:38.855Z,17.00
2019-04-30T17:43:07.712Z,17.00
2019-04-30T17:45:36.235Z,17.00
2019-04-30T17:48:04.889Z,17.00
2019-04-30T17:50:33.365Z,16.90
2019-04-30T17:53:01.853Z,16.80
2019-04-30T17:55:30.265Z,16.80
2019-04-30T17:57:58.730Z,16.70
2019-04-30T18:00:29.292Z,16.70
2019-04-30T18:02:57.993Z,16.60
2019-04-30T18:05:26.550Z,16.50
2019-04-30T18:07:55.177Z,16.40
2019-04-30T18:10:23.745Z,16.30
2019-04-30T18:12:52.379Z,16.10
2019-04-30T18:15:25.338Z,16.00
2019-04-30T18:17:55.574Z,15.80
2019-04-30T18:20:34.539Z,15.50
2019-04-30T18:23:19.760Z,15.40
2019-04-30T18:25:52.601Z,15.10
2019-04-30T18:28:21.051Z,15.20
2019-04-30T18:30:50.191Z,15.10
2019-04-30T18:33:18.818Z,14.90
2019-04-30T18:35:48.649Z,14.90
2019-04-30T18:38:17.809Z,14.80
2019-04-30T18:40:46.420Z,14.50
2019-04-30T18:43:15.894Z,14.40
2019-04-30T18:45:44.835Z,14.10
2019-04-30T18:48:14.313Z,13.80
2019-04-30T18:50:42.907Z,13.50
2019-04-30T18:53:12.984Z,13.40
2019-04-30T18:55:41.864Z,13.20
2019-04-30T18:58:10.798Z,13.00
2019-04-30T19:00:41.523Z,12.80
2019-04-30T19:03:10.146Z,12.70
2019-04-30T19:05:40.627Z,12.50
2019-04-30T19:08:19.412Z,12.40
2019-04-30T19:10:52.006Z,12.30
2019-04-30T19:13:24.192Z,12.10
2019-04-30T19:16:18.783Z,12.10
2019-04-30T19:18:35.870Z,11.90
2019-04-30T19:21:06.603Z,11.80
2019-04-30T19:23:35.215Z,11.70
2019-04-30T19:26:03.894Z,11.80
2019-04-30T19:28:32.397Z,11.90
2019-04-30T19:31:01.134Z,11.70
2019-04-30T19:33:31.195Z,11.60
2019-04-30T19:35:59.980Z,11.50
2019-04-30T19:38:28.628Z,11.70
2019-04-30T19:40:57.180Z,11.90
2019-04-30T19:43:25.898Z,11.90
2019-04-30T19:45:54.498Z,11.90
2019-04-30T19:48:22.997Z,11.80
2019-04-30T19:50:51.492Z,11.60
2019-04-30T19:53:22.155Z,11.50
2019-04-30T19:55:50.362Z,11.40
2019-04-30T19:58:27.700Z,11.40
2019-04-30T20:00:49.895Z,11.40
2019-04-30T20:03:19.900Z,11.30
2019-04-30T20:05:48.779Z,11.40
2019-04-30T20:08:19.739Z,11.30
2019-04-30T20:10:49.627Z,11.20
2019-04-30T20:13:30.605Z,11.30
2019-04-30T20:15:49.445Z,11.20
2019-04-30T20:18:19.097Z,11.60
2019-04-30T20:20:51.742Z,11.60
2019-04-30T20:23:19.879Z,11.50
2019-04-30T20:25:48.422Z,11.30
2019-04-30T20:28:17.137Z,11.40
2019-04-30T20:30:45.932Z,11.30
2019-04-30T20:33:14.415Z,11.30
2019-04-30T20:35:43.236Z,11.60
2019-04-30T20:38:13.396Z,11.60
2019-04-30T20:40:47.610Z,11.50
2019-04-30T20:43:13.926Z,11.70
2019-04-30T20:45:42.818Z,11.40
2019-04-30T20:48:11.397Z,11.50
2019-04-30T20:50:39.906Z,11.60
2019-04-30T20:53:08.904Z,11.50
2019-04-30T20:55:38.849Z,11.50
2019-04-30T20:58:09.470Z,11.50
2019-04-30T21:00:38.492Z,11.40
2019-04-30T21:03:07.072Z,11.20
2019-04-30T21:05:35.795Z,11.40
2019-04-30T21:08:04.741Z,11.20
2019-04-30T21:10:33.354Z,11.60
2019-04-30T21:13:01.907Z,11.40
2019-04-30T21:15:30.504Z,11.50
2019-04-30T21:17:59.063Z,11.60
2019-04-30T21:20:28.849Z,11.50
2019-04-30T21:22:59.475Z,11.40
2019-04-30T21:25:29.165Z,11.20
2019-04-30T21:27:59.943Z,11.50
2019-04-30T21:30:28.338Z,11.30
2019-04-30T21:33:09.228Z,11.40
2019-04-30T21:35:44.984Z,11.10
2019-04-30T21:38:13.849Z,11.30
2019-04-30T21:40:42.507Z,11.20
2019-04-30T21:43:11.122Z,11.30
2019-04-30T21:45:39.983Z,11.40
2019-04-30T21:48:09.192Z,11.20
2019-04-30T21:50:39.645Z,11.10
2019-04-30T21:53:09.890Z,10.90
2019-04-30T21:55:39.795Z,11.00
2019-04-30T21:58:09.550Z,10.90
2019-04-30T22:00:42.667Z,11.00
2019-04-30T22:03:11.266Z,11.20
2019-04-30T22:05:39.718Z,11.40
2019-04-30T22:08:09.078Z,11.20
2019-04-30T22:10:38.010Z,11.60
2019-04-30T22:13:08.753Z,11.60
2019-04-30T22:15:37.254Z,11.30
2019-04-30T22:18:05.847Z,11.20
2019-04-30T22:20:34.336Z,11.10
2019-04-30T22:23:02.941Z,11.20
2019-04-30T22:25:31.496Z,11.00
2019-04-30T22:27:59.954Z,10.80
2019-04-30T22:30:28.644Z,11.00
2019-04-30T22:32:59.465Z,10.80
2019-04-30T22:35:29.435Z,10.80
2019-04-30T22:38:02.466Z,10.70
2019-04-30T22:40:31.633Z,10.60
2019-04-30T22:43:00.260Z,10.30
2019-04-30T22:45:30.465Z,10.10
2019-04-30T22:47:59.281Z,10.00
2019-04-30T22:50:27.828Z,9.90
2019-04-30T22:52:56.379Z,10.00
2019-04-30T22:55:24.910Z,9.90
2019-04-30T22:57:53.543Z,9.80
2019-04-30T23:00:29.351Z,9.90
2019-04-30T23:02:59.484Z,9.70
2019-04-30T23:05:28.056Z,9.50
2019-04-30T23:07:56.634Z,9.40
2019-04-30T23:10:25.257Z,9.30
2019-04-30T23:12:54.071Z,9.30
2019-04-30T23:15:22.908Z,9.40
2019-04-30T23:17:51.480Z,9.40
2019-04-30T23:20:20.135Z,9.50
2019-04-30T23:22:48.895Z,9.50
2019-04-30T23:25:17.483Z,9.60
2019-04-30T23:27:48.236Z,9.70
2019-04-30T23:30:17.090Z,9.50
2019-04-30T23:32:48.879Z,9.70
2019-04-30T23:35:17.568Z,9.90
2019-04-30T23:37:46.115Z,9.80
2019-04-30T23:40:28.140Z,9.50
2019-04-30T23:42:56.726Z,9.40
2019-04-30T23:45:25.479Z,9.30
2019-04-30T23:47:54.011Z,9.40
2019-04-30T23:50:22.550Z,9.30
2019-04-30T23:52:51.210Z,9.10
2019-04-30T23:55:19.741Z,8.90
2019-04-30T23:57:48.318Z,8.80
